sensor_id;sensor_type;location;lat;lon;timestamp;temperature;humidity
67820;DHT22;54618;52.018;5.576;2024-02-21T00:00:51;9.80;94.70
67820;DHT22;54618;52.018;5.576;2024-02-21T00:03:16;9.80;94.70
67820;DHT22;54618;52.018;5.576;2024-02-21T00:05:42;9.80;94.70
67820;DHT22;54618;52.018;5.576;2024-02-21T00:08:08;9.70;94.70
67820;DHT22;54618;52.018;5.576;2024-02-21T00:10:33;9.80;94.70
67820;DHT22;54618;52.018;5.576;2024-02-21T00:13:00;9.80;94.70
67820;DHT22;54618;52.018;5.576;2024-02-21T00:15:26;9.80;94.70
67820;DHT22;54618;52.018;5.576;2024-02-21T00:17:55;9.80;94.70
67820;DHT22;54618;52.018;5.576;2024-02-21T00:20:20;9.80;94.70
67820;DHT22;54618;52.018;5.576;2024-02-21T00:22:46;9.80;94.70
67820;DHT22;54618;52.018;5.576;2024-02-21T00:25:12;9.80;94.70
67820;DHT22;54618;52.018;5.576;2024-02-21T00:27:38;9.80;95.00
67820;DHT22;54618;52.018;5.576;2024-02-21T00:30:05;9.80;94.70
67820;DHT22;54618;52.018;5.576;2024-02-21T00:32:31;9.80;94.70
67820;DHT22;54618;52.018;5.576;2024-02-21T00:34:59;9.80;94.80
67820;DHT22;54618;52.018;5.576;2024-02-21T00:37:25;9.70;94.80
67820;DHT22;54618;52.018;5.576;2024-02-21T00:39:50;9.70;94.80
67820;DHT22;54618;52.018;5.576;2024-02-21T00:42:16;9.70;94.90
67820;DHT22;54618;52.018;5.576;2024-02-21T00:44:41;9.70;94.90
67820;DHT22;54618;52.018;5.576;2024-02-21T00:47:07;9.70;94.90
67820;DHT22;54618;52.018;5.576;2024-02-21T00:49:33;9.70;94.90
67820;DHT22;54618;52.018;5.576;2024-02-21T00:52:01;9.70;94.90
67820;DHT22;54618;52.018;5.576;2024-02-21T00:54:27;9.70;94.90
67820;DHT22;54618;52.018;5.576;2024-02-21T00:56:52;9.70;94.90
67820;DHT22;54618;52.018;5.576;2024-02-21T00:59:18;9.70;95.00
67820;DHT22;54618;52.018;5.576;2024-02-21T01:01:44;9.70;94.90
67820;DHT22;54618;52.018;5.576;2024-02-21T01:04:09;9.70;94.90
67820;DHT22;54618;52.018;5.576;2024-02-21T01:06:35;9.70;94.90
67820;DHT22;54618;52.018;5.576;2024-02-21T01:09:01;9.70;94.90
67820;DHT22;54618;52.018;5.576;2024-02-21T01:11:27;9.70;94.90
67820;DHT22;54618;52.018;5.576;2024-02-21T01:13:53;9.70;94.90
67820;DHT22;54618;52.018;5.576;2024-02-21T01:16:18;9.70;94.90
67820;DHT22;54618;52.018;5.576;2024-02-21T01:18:44;9.70;94.90
67820;DHT22;54618;52.018;5.576;2024-02-21T01:21:10;9.70;94.90
67820;DHT22;54618;52.018;5.576;2024-02-21T01:23:36;9.70;94.90
67820;DHT22;54618;52.018;5.576;2024-02-21T01:26:03;9.70;94.90
67820;DHT22;54618;52.018;5.576;2024-02-21T01:28:32;9.70;94.90
67820;DHT22;54618;52.018;5.576;2024-02-21T01:31:01;9.70;94.90
67820;DHT22;54618;52.018;5.576;2024-02-21T01:33:26;9.70;94.90
67820;DHT22;54618;52.018;5.576;2024-02-21T01:35:52;9.60;94.90
67820;DHT22;54618;52.018;5.576;2024-02-21T01:38:18;9.70;94.90
67820;DHT22;54618;52.018;5.576;2024-02-21T01:40:44;9.60;95.10
67820;DHT22;54618;52.018;5.576;2024-02-21T01:43:17;9.70;94.90
67820;DHT22;54618;52.018;5.576;2024-02-21T01:45:45;9.70;94.90
67820;DHT22;54618;52.018;5.576;2024-02-21T01:48:12;9.70;95.00
67820;DHT22;54618;52.018;5.576;2024-02-21T01:50:38;9.70;95.00
67820;DHT22;54618;52.018;5.576;2024-02-21T01:53:04;9.60;95.00
67820;DHT22;54618;52.018;5.576;2024-02-21T01:55:30;9.60;95.00
67820;DHT22;54618;52.018;5.576;2024-02-21T01:57:56;9.60;95.00
67820;DHT22;54618;52.018;5.576;2024-02-21T02:00:22;9.60;95.00
67820;DHT22;54618;52.018;5.576;2024-02-21T02:02:49;9.60;95.00
67820;DHT22;54618;52.018;5.576;2024-02-21T02:05:16;9.60;95.10
67820;DHT22;54618;52.018;5.576;2024-02-21T02:07:42;9.60;95.10
67820;DHT22;54618;52.018;5.576;2024-02-21T02:10:08;9.60;95.10
67820;DHT22;54618;52.018;5.576;2024-02-21T02:12:35;9.60;95.10
67820;DHT22;54618;52.018;5.576;2024-02-21T02:15:02;9.60;95.10
67820;DHT22;54618;52.018;5.576;2024-02-21T02:17:31;9.60;95.10
67820;DHT22;54618;52.018;5.576;2024-02-21T02:19:57;9.60;95.10
67820;DHT22;54618;52.018;5.576;2024-02-21T02:22:32;9.60;95.10
67820;DHT22;54618;52.018;5.576;2024-02-21T02:24:59;9.60;95.10
67820;DHT22;54618;52.018;5.576;2024-02-21T02:27:24;9.60;95.10
67820;DHT22;54618;52.018;5.576;2024-02-21T02:29:50;9.60;95.10
67820;DHT22;54618;52.018;5.576;2024-02-21T02:32:17;9.60;95.10
67820;DHT22;54618;52.018;5.576;2024-02-21T02:34:42;9.60;95.20
67820;DHT22;54618;52.018;5.576;2024-02-21T02:37:08;9.60;95.20
67820;DHT22;54618;52.018;5.576;2024-02-21T02:39:34;9.60;95.10
67820;DHT22;54618;52.018;5.576;2024-02-21T02:41:59;9.60;95.10
67820;DHT22;54618;52.018;5.576;2024-02-21T02:44:25;9.60;95.20
67820;DHT22;54618;52.018;5.576;2024-02-21T02:46:51;9.60;95.20
67820;DHT22;54618;52.018;5.576;2024-02-21T02:49:16;9.60;95.20
67820;DHT22;54618;52.018;5.576;2024-02-21T02:51:43;9.60;95.30
67820;DHT22;54618;52.018;5.576;2024-02-21T02:54:09;9.60;95.20
67820;DHT22;54618;52.018;5.576;2024-02-21T02:56:35;9.60;95.20
67820;DHT22;54618;52.018;5.576;2024-02-21T02:59:00;9.60;95.20
67820;DHT22;54618;52.018;5.576;2024-02-21T03:01:26;9.60;95.20
67820;DHT22;54618;52.018;5.576;2024-02-21T03:03:52;9.50;95.20
67820;DHT22;54618;52.018;5.576;2024-02-21T03:06:18;9.60;95.20
67820;DHT22;54618;52.018;5.576;2024-02-21T03:08:44;9.60;95.20
67820;DHT22;54618;52.018;5.576;2024-02-21T03:11:09;9.60;95.20
67820;DHT22;54618;52.018;5.576;2024-02-21T03:13:36;9.50;95.20
67820;DHT22;54618;52.018;5.576;2024-02-21T03:16:02;9.60;95.20
67820;DHT22;54618;52.018;5.576;2024-02-21T03:18:31;9.50;95.20
67820;DHT22;54618;52.018;5.576;2024-02-21T03:20:57;9.50;95.20
67820;DHT22;54618;52.018;5.576;2024-02-21T03:23:22;9.50;95.20
67820;DHT22;54618;52.018;5.576;2024-02-21T03:25:48;9.50;95.20
67820;DHT22;54618;52.018;5.576;2024-02-21T03:28:15;9.50;95.40
67820;DHT22;54618;52.018;5.576;2024-02-21T03:30:41;9.50;95.20
67820;DHT22;54618;52.018;5.576;2024-02-21T03:33:07;9.50;95.10
67820;DHT22;54618;52.018;5.576;2024-02-21T03:35:32;9.50;95.10
67820;DHT22;54618;52.018;5.576;2024-02-21T03:38:01;9.50;95.10
67820;DHT22;54618;52.018;5.576;2024-02-21T03:40:27;9.50;95.10
67820;DHT22;54618;52.018;5.576;2024-02-21T03:42:52;9.50;95.10
67820;DHT22;54618;52.018;5.576;2024-02-21T03:45:18;9.50;95.10
67820;DHT22;54618;52.018;5.576;2024-02-21T03:47:43;9.50;95.10
67820;DHT22;54618;52.018;5.576;2024-02-21T03:50:09;9.50;95.10
67820;DHT22;54618;52.018;5.576;2024-02-21T03:52:35;9.50;95.20
67820;DHT22;54618;52.018;5.576;2024-02-21T03:55:00;9.50;95.20
67820;DHT22;54618;52.018;5.576;2024-02-21T03:57:26;9.50;95.20
67820;DHT22;54618;52.018;5.576;2024-02-21T03:59:52;9.50;95.20
67820;DHT22;54618;52.018;5.576;2024-02-21T04:02:18;9.50;95.20
67820;DHT22;54618;52.018;5.576;2024-02-21T04:04:44;9.50;95.20
67820;DHT22;54618;52.018;5.576;2024-02-21T04:07:14;9.50;95.20
67820;DHT22;54618;52.018;5.576;2024-02-21T04:09:40;9.50;95.20
67820;DHT22;54618;52.018;5.576;2024-02-21T04:12:08;9.50;95.20
67820;DHT22;54618;52.018;5.576;2024-02-21T04:14:35;9.50;95.20
67820;DHT22;54618;52.018;5.576;2024-02-21T04:17:00;9.50;95.20
67820;DHT22;54618;52.018;5.576;2024-02-21T04:19:26;9.50;95.20
67820;DHT22;54618;52.018;5.576;2024-02-21T04:21:51;9.50;95.20
67820;DHT22;54618;52.018;5.576;2024-02-21T04:24:17;9.50;95.20
67820;DHT22;54618;52.018;5.576;2024-02-21T04:26:43;9.50;95.20
67820;DHT22;54618;52.018;5.576;2024-02-21T04:29:09;9.50;95.40
67820;DHT22;54618;52.018;5.576;2024-02-21T04:31:35;9.50;95.20
67820;DHT22;54618;52.018;5.576;2024-02-21T04:34:00;9.50;95.20
67820;DHT22;54618;52.018;5.576;2024-02-21T04:36:26;9.50;95.20
67820;DHT22;54618;52.018;5.576;2024-02-21T04:38:51;9.50;95.30
67820;DHT22;54618;52.018;5.576;2024-02-21T04:41:17;9.50;95.30
67820;DHT22;54618;52.018;5.576;2024-02-21T04:43:43;9.50;95.30
67820;DHT22;54618;52.018;5.576;2024-02-21T04:46:08;9.50;95.30
67820;DHT22;54618;52.018;5.576;2024-02-21T04:48:35;9.50;95.30
67820;DHT22;54618;52.018;5.576;2024-02-21T04:51:00;9.50;95.60
67820;DHT22;54618;52.018;5.576;2024-02-21T04:53:26;9.50;95.40
67820;DHT22;54618;52.018;5.576;2024-02-21T04:55:52;9.50;95.40
67820;DHT22;54618;52.018;5.576;2024-02-21T04:58:17;9.40;95.40
67820;DHT22;54618;52.018;5.576;2024-02-21T05:00:43;9.50;95.40
67820;DHT22;54618;52.018;5.576;2024-02-21T05:03:08;9.40;95.40
67820;DHT22;54618;52.018;5.576;2024-02-21T05:05:34;9.40;95.50
67820;DHT22;54618;52.018;5.576;2024-02-21T05:08:01;9.40;95.50
67820;DHT22;54618;52.018;5.576;2024-02-21T05:10:26;9.40;95.50
67820;DHT22;54618;52.018;5.576;2024-02-21T05:12:52;9.40;95.50
67820;DHT22;54618;52.018;5.576;2024-02-21T05:15:18;9.40;95.50
67820;DHT22;54618;52.018;5.576;2024-02-21T05:17:43;9.40;95.50
67820;DHT22;54618;52.018;5.576;2024-02-21T05:20:09;9.40;95.50
67820;DHT22;54618;52.018;5.576;2024-02-21T05:22:35;9.40;95.50
67820;DHT22;54618;52.018;5.576;2024-02-21T05:25:01;9.40;95.60
67820;DHT22;54618;52.018;5.576;2024-02-21T05:27:27;9.30;95.80
67820;DHT22;54618;52.018;5.576;2024-02-21T05:29:53;9.30;95.60
67820;DHT22;54618;52.018;5.576;2024-02-21T05:32:19;9.40;95.60
67820;DHT22;54618;52.018;5.576;2024-02-21T05:34:48;9.30;95.60
67820;DHT22;54618;52.018;5.576;2024-02-21T05:37:14;9.30;95.60
67820;DHT22;54618;52.018;5.576;2024-02-21T05:39:40;9.30;95.60
67820;DHT22;54618;52.018;5.576;2024-02-21T05:42:06;9.30;95.60
67820;DHT22;54618;52.018;5.576;2024-02-21T05:44:32;9.30;95.70
67820;DHT22;54618;52.018;5.576;2024-02-21T05:47:00;9.30;95.70
67820;DHT22;54618;52.018;5.576;2024-02-21T05:49:26;9.30;95.70
67820;DHT22;54618;52.018;5.576;2024-02-21T05:51:52;9.30;95.70
67820;DHT22;54618;52.018;5.576;2024-02-21T05:54:17;9.30;95.70
67820;DHT22;54618;52.018;5.576;2024-02-21T05:56:46;9.20;95.70
67820;DHT22;54618;52.018;5.576;2024-02-21T05:59:12;9.30;95.70
67820;DHT22;54618;52.018;5.576;2024-02-21T06:01:38;9.30;95.70
67820;DHT22;54618;52.018;5.576;2024-02-21T06:04:03;9.30;95.70
67820;DHT22;54618;52.018;5.576;2024-02-21T06:06:32;9.30;95.70
67820;DHT22;54618;52.018;5.576;2024-02-21T06:09:01;9.30;95.80
67820;DHT22;54618;52.018;5.576;2024-02-21T06:11:31;9.20;95.70
67820;DHT22;54618;52.018;5.576;2024-02-21T06:13:56;9.20;95.70
67820;DHT22;54618;52.018;5.576;2024-02-21T06:16:22;9.20;95.70
67820;DHT22;54618;52.018;5.576;2024-02-21T06:18:48;9.20;95.80
67820;DHT22;54618;52.018;5.576;2024-02-21T06:21:13;9.20;95.80
67820;DHT22;54618;52.018;5.576;2024-02-21T06:23:39;9.20;95.80
67820;DHT22;54618;52.018;5.576;2024-02-21T06:26:04;9.20;95.80
67820;DHT22;54618;52.018;5.576;2024-02-21T06:28:30;9.20;95.80
67820;DHT22;54618;52.018;5.576;2024-02-21T06:30:55;9.20;95.80
67820;DHT22;54618;52.018;5.576;2024-02-21T06:33:21;9.10;95.80
67820;DHT22;54618;52.018;5.576;2024-02-21T06:35:50;9.20;95.80
67820;DHT22;54618;52.018;5.576;2024-02-21T06:38:18;9.10;95.80
67820;DHT22;54618;52.018;5.576;2024-02-21T06:40:44;9.10;95.80
67820;DHT22;54618;52.018;5.576;2024-02-21T06:43:16;9.10;95.80
67820;DHT22;54618;52.018;5.576;2024-02-21T06:45:41;9.10;95.80
67820;DHT22;54618;52.018;5.576;2024-02-21T06:48:07;9.10;95.80
67820;DHT22;54618;52.018;5.576;2024-02-21T06:50:33;9.10;95.80
67820;DHT22;54618;52.018;5.576;2024-02-21T06:52:59;9.10;95.80
67820;DHT22;54618;52.018;5.576;2024-02-21T06:55:24;9.10;95.70
67820;DHT22;54618;52.018;5.576;2024-02-21T06:57:50;9.10;95.70
67820;DHT22;54618;52.018;5.576;2024-02-21T07:00:16;9.10;95.70
67820;DHT22;54618;52.018;5.576;2024-02-21T07:02:42;9.10;95.70
67820;DHT22;54618;52.018;5.576;2024-02-21T07:05:08;9.10;95.60
67820;DHT22;54618;52.018;5.576;2024-02-21T07:07:33;9.10;95.60
67820;DHT22;54618;52.018;5.576;2024-02-21T07:10:00;9.10;95.60
67820;DHT22;54618;52.018;5.576;2024-02-21T07:12:26;9.10;95.60
67820;DHT22;54618;52.018;5.576;2024-02-21T07:14:52;9.10;95.60
67820;DHT22;54618;52.018;5.576;2024-02-21T07:17:17;9.10;95.50
67820;DHT22;54618;52.018;5.576;2024-02-21T07:19:43;9.10;95.50
67820;DHT22;54618;52.018;5.576;2024-02-21T07:22:08;9.20;95.70
67820;DHT22;54618;52.018;5.576;2024-02-21T07:24:34;9.20;95.40
67820;DHT22;54618;52.018;5.576;2024-02-21T07:27:00;9.20;95.40
67820;DHT22;54618;52.018;5.576;2024-02-21T07:29:30;9.20;95.40
67820;DHT22;54618;52.018;5.576;2024-02-21T07:31:56;9.20;95.30
67820;DHT22;54618;52.018;5.576;2024-02-21T07:34:21;9.20;95.30
67820;DHT22;54618;52.018;5.576;2024-02-21T07:36:47;9.20;95.30
67820;DHT22;54618;52.018;5.576;2024-02-21T07:39:13;9.20;95.30
67820;DHT22;54618;52.018;5.576;2024-02-21T07:41:38;9.30;95.30
67820;DHT22;54618;52.018;5.576;2024-02-21T07:44:05;9.30;95.30
67820;DHT22;54618;52.018;5.576;2024-02-21T07:46:31;9.30;95.30
67820;DHT22;54618;52.018;5.576;2024-02-21T07:48:56;9.30;95.30
67820;DHT22;54618;52.018;5.576;2024-02-21T07:51:22;9.30;95.30
67820;DHT22;54618;52.018;5.576;2024-02-21T07:53:48;9.30;95.20
67820;DHT22;54618;52.018;5.576;2024-02-21T07:56:15;9.40;95.30
67820;DHT22;54618;52.018;5.576;2024-02-21T07:58:41;9.40;95.20
67820;DHT22;54618;52.018;5.576;2024-02-21T08:01:08;9.40;95.20
67820;DHT22;54618;52.018;5.576;2024-02-21T08:03:34;9.40;95.20
67820;DHT22;54618;52.018;5.576;2024-02-21T08:05:59;9.40;95.10
67820;DHT22;54618;52.018;5.576;2024-02-21T08:08:25;9.40;95.10
67820;DHT22;54618;52.018;5.576;2024-02-21T08:10:52;9.50;95.10
67820;DHT22;54618;52.018;5.576;2024-02-21T08:13:17;9.40;95.10
67820;DHT22;54618;52.018;5.576;2024-02-21T08:15:43;9.50;95.10
67820;DHT22;54618;52.018;5.576;2024-02-21T08:18:09;9.50;95.10
67820;DHT22;54618;52.018;5.576;2024-02-21T08:20:35;9.50;95.00
67820;DHT22;54618;52.018;5.576;2024-02-21T08:23:01;9.60;95.00
67820;DHT22;54618;52.018;5.576;2024-02-21T08:25:27;9.60;94.90
67820;DHT22;54618;52.018;5.576;2024-02-21T08:27:58;9.60;94.90
67820;DHT22;54618;52.018;5.576;2024-02-21T08:30:24;9.70;94.90
67820;DHT22;54618;52.018;5.576;2024-02-21T08:32:50;9.70;94.80
67820;DHT22;54618;52.018;5.576;2024-02-21T08:35:16;9.70;94.80
67820;DHT22;54618;52.018;5.576;2024-02-21T08:37:44;9.80;94.80
67820;DHT22;54618;52.018;5.576;2024-02-21T08:40:10;9.70;94.70
67820;DHT22;54618;52.018;5.576;2024-02-21T08:42:36;9.70;94.60
67820;DHT22;54618;52.018;5.576;2024-02-21T08:45:03;9.80;94.70
67820;DHT22;54618;52.018;5.576;2024-02-21T08:47:31;9.80;94.60
67820;DHT22;54618;52.018;5.576;2024-02-21T08:49:57;9.80;94.60
67820;DHT22;54618;52.018;5.576;2024-02-21T08:52:23;9.80;94.60
67820;DHT22;54618;52.018;5.576;2024-02-21T08:54:48;9.90;94.40
67820;DHT22;54618;52.018;5.576;2024-02-21T08:57:14;9.90;94.60
67820;DHT22;54618;52.018;5.576;2024-02-21T08:59:40;9.90;94.50
67820;DHT22;54618;52.018;5.576;2024-02-21T09:02:06;9.90;94.50
67820;DHT22;54618;52.018;5.576;2024-02-21T09:04:32;9.90;94.40
67820;DHT22;54618;52.018;5.576;2024-02-21T09:06:59;9.90;94.50
67820;DHT22;54618;52.018;5.576;2024-02-21T09:09:27;10.00;94.40
67820;DHT22;54618;52.018;5.576;2024-02-21T09:11:53;10.00;94.20
67820;DHT22;54618;52.018;5.576;2024-02-21T09:14:19;10.00;94.40
67820;DHT22;54618;52.018;5.576;2024-02-21T09:16:45;10.00;94.30
67820;DHT22;54618;52.018;5.576;2024-02-21T09:19:10;10.10;94.30
67820;DHT22;54618;52.018;5.576;2024-02-21T09:21:39;10.10;94.20
67820;DHT22;54618;52.018;5.576;2024-02-21T09:24:06;10.10;94.00
67820;DHT22;54618;52.018;5.576;2024-02-21T09:26:32;10.10;93.90
67820;DHT22;54618;52.018;5.576;2024-02-21T09:28:57;10.20;94.00
67820;DHT22;54618;52.018;5.576;2024-02-21T09:31:23;10.20;94.00
67820;DHT22;54618;52.018;5.576;2024-02-21T09:33:49;10.20;94.00
67820;DHT22;54618;52.018;5.576;2024-02-21T09:36:14;10.30;94.10
67820;DHT22;54618;52.018;5.576;2024-02-21T09:38:40;10.30;94.00
67820;DHT22;54618;52.018;5.576;2024-02-21T09:41:18;10.30;94.00
67820;DHT22;54618;52.018;5.576;2024-02-21T09:43:50;10.40;94.00
67820;DHT22;54618;52.018;5.576;2024-02-21T09:51:40;10.50;93.60
67820;DHT22;54618;52.018;5.576;2024-02-21T09:54:07;10.60;93.80
67820;DHT22;54618;52.018;5.576;2024-02-21T09:56:33;10.70;93.70
67820;DHT22;54618;52.018;5.576;2024-02-21T09:58:59;10.70;93.70
67820;DHT22;54618;52.018;5.576;2024-02-21T10:01:28;10.60;93.60
67820;DHT22;54618;52.018;5.576;2024-02-21T10:03:54;10.70;93.70
67820;DHT22;54618;52.018;5.576;2024-02-21T10:06:19;10.70;93.80
67820;DHT22;54618;52.018;5.576;2024-02-21T10:08:53;10.80;93.80
67820;DHT22;54618;52.018;5.576;2024-02-21T10:11:25;10.80;93.50
67820;DHT22;54618;52.018;5.576;2024-02-21T10:13:51;10.90;93.20
67820;DHT22;54618;52.018;5.576;2024-02-21T10:16:28;10.90;93.40
67820;DHT22;54618;52.018;5.576;2024-02-21T10:18:54;10.90;93.50
67820;DHT22;54618;52.018;5.576;2024-02-21T10:21:20;11.00;93.30
67820;DHT22;54618;52.018;5.576;2024-02-21T10:23:50;11.00;93.30
67820;DHT22;54618;52.018;5.576;2024-02-21T10:26:18;11.00;93.10
67820;DHT22;54618;52.018;5.576;2024-02-21T10:28:44;11.10;93.30
67820;DHT22;54618;52.018;5.576;2024-02-21T10:31:24;11.10;93.10
67820;DHT22;54618;52.018;5.576;2024-02-21T10:34:00;11.20;92.80
67820;DHT22;54618;52.018;5.576;2024-02-21T10:36:29;11.20;92.90
67820;DHT22;54618;52.018;5.576;2024-02-21T10:38:55;11.20;93.20
67820;DHT22;54618;52.018;5.576;2024-02-21T10:41:24;11.20;93.20
67820;DHT22;54618;52.018;5.576;2024-02-21T10:43:54;11.20;93.10
67820;DHT22;54618;52.018;5.576;2024-02-21T10:46:22;11.10;93.30
67820;DHT22;54618;52.018;5.576;2024-02-21T10:49:01;11.00;93.30
67820;DHT22;54618;52.018;5.576;2024-02-21T10:51:30;11.00;93.60
67820;DHT22;54618;52.018;5.576;2024-02-21T10:54:16;11.00;93.70
67820;DHT22;54618;52.018;5.576;2024-02-21T10:56:45;11.00;93.80
67820;DHT22;54618;52.018;5.576;2024-02-21T10:59:13;11.10;93.80
67820;DHT22;54618;52.018;5.576;2024-02-21T11:01:39;11.10;93.70
67820;DHT22;54618;52.018;5.576;2024-02-21T11:04:06;11.10;93.90
67820;DHT22;54618;52.018;5.576;2024-02-21T11:06:37;11.10;93.60
67820;DHT22;54618;52.018;5.576;2024-02-21T11:09:07;11.10;93.70
67820;DHT22;54618;52.018;5.576;2024-02-21T11:11:38;11.10;91.90
67820;DHT22;54618;52.018;5.576;2024-02-21T11:14:18;11.20;93.00
67820;DHT22;54618;52.018;5.576;2024-02-21T11:16:44;11.10;91.20
67820;DHT22;54618;52.018;5.576;2024-02-21T11:19:25;11.10;93.10
67820;DHT22;54618;52.018;5.576;2024-02-21T11:21:52;11.10;93.30
67820;DHT22;54618;52.018;5.576;2024-02-21T11:24:34;11.10;93.50
67820;DHT22;54618;52.018;5.576;2024-02-21T11:27:16;11.00;93.40
67820;DHT22;54618;52.018;5.576;2024-02-21T11:29:46;11.00;92.40
67820;DHT22;54618;52.018;5.576;2024-02-21T11:32:17;10.90;93.40
67820;DHT22;54618;52.018;5.576;2024-02-21T11:35:05;10.90;93.10
67820;DHT22;54618;52.018;5.576;2024-02-21T11:37:32;10.80;93.40
67820;DHT22;54618;52.018;5.576;2024-02-21T11:40:04;10.80;93.90
67820;DHT22;54618;52.018;5.576;2024-02-21T11:42:35;10.80;93.80
67820;DHT22;54618;52.018;5.576;2024-02-21T11:45:04;10.70;93.80
67820;DHT22;54618;52.018;5.576;2024-02-21T11:47:30;10.70;93.70
67820;DHT22;54618;52.018;5.576;2024-02-21T11:49:56;10.70;94.20
67820;DHT22;54618;52.018;5.576;2024-02-21T11:52:22;10.60;94.00
67820;DHT22;54618;52.018;5.576;2024-02-21T11:54:51;10.60;94.10
67820;DHT22;54618;52.018;5.576;2024-02-21T11:57:18;10.60;94.00
67820;DHT22;54618;52.018;5.576;2024-02-21T11:59:45;10.60;94.10
67820;DHT22;54618;52.018;5.576;2024-02-21T12:02:11;10.70;94.00
67820;DHT22;54618;52.018;5.576;2024-02-21T12:04:38;10.80;94.00
67820;DHT22;54618;52.018;5.576;2024-02-21T12:07:04;10.90;93.80
67820;DHT22;54618;52.018;5.576;2024-02-21T12:09:30;11.00;93.40
67820;DHT22;54618;52.018;5.576;2024-02-21T12:12:03;11.10;93.40
67820;DHT22;54618;52.018;5.576;2024-02-21T12:14:31;11.20;92.90
67820;DHT22;54618;52.018;5.576;2024-02-21T12:17:01;11.40;92.90
67820;DHT22;54618;52.018;5.576;2024-02-21T12:19:29;11.50;92.90
67820;DHT22;54618;52.018;5.576;2024-02-21T12:21:55;11.60;92.60
67820;DHT22;54618;52.018;5.576;2024-02-21T12:26:52;11.80;92.60
67820;DHT22;54618;52.018;5.576;2024-02-21T12:29:21;11.80;92.50
67820;DHT22;54618;52.018;5.576;2024-02-21T12:31:48;11.90;92.30
67820;DHT22;54618;52.018;5.576;2024-02-21T12:34:15;11.80;92.30
67820;DHT22;54618;52.018;5.576;2024-02-21T12:36:42;11.80;92.40
67820;DHT22;54618;52.018;5.576;2024-02-21T12:39:09;11.80;92.60
67820;DHT22;54618;52.018;5.576;2024-02-21T12:41:35;11.80;92.60
67820;DHT22;54618;52.018;5.576;2024-02-21T12:44:04;11.80;92.60
67820;DHT22;54618;52.018;5.576;2024-02-21T12:46:35;11.80;92.50
67820;DHT22;54618;52.018;5.576;2024-02-21T12:49:01;11.80;92.50
67820;DHT22;54618;52.018;5.576;2024-02-21T12:51:37;11.80;92.50
67820;DHT22;54618;52.018;5.576;2024-02-21T12:54:06;11.80;92.40
67820;DHT22;54618;52.018;5.576;2024-02-21T12:56:34;11.90;92.50
67820;DHT22;54618;52.018;5.576;2024-02-21T12:59:00;11.90;92.10
67820;DHT22;54618;52.018;5.576;2024-02-21T13:01:26;12.00;92.50
67820;DHT22;54618;52.018;5.576;2024-02-21T13:03:51;12.00;92.50
67820;DHT22;54618;52.018;5.576;2024-02-21T13:06:17;12.00;92.30
67820;DHT22;54618;52.018;5.576;2024-02-21T13:08:44;12.00;92.50
67820;DHT22;54618;52.018;5.576;2024-02-21T13:11:12;12.00;92.20
67820;DHT22;54618;52.018;5.576;2024-02-21T13:13:38;12.00;92.00
67820;DHT22;54618;52.018;5.576;2024-02-21T13:16:07;12.00;92.10
67820;DHT22;54618;52.018;5.576;2024-02-21T13:18:35;11.90;91.80
67820;DHT22;54618;52.018;5.576;2024-02-21T13:21:06;11.90;92.10
67820;DHT22;54618;52.018;5.576;2024-02-21T13:23:32;11.90;92.10
67820;DHT22;54618;52.018;5.576;2024-02-21T13:25:58;11.90;92.20
67820;DHT22;54618;52.018;5.576;2024-02-21T13:28:23;11.90;92.20
67820;DHT22;54618;52.018;5.576;2024-02-21T13:30:49;11.90;92.10
67820;DHT22;54618;52.018;5.576;2024-02-21T13:33:14;11.90;92.20
67820;DHT22;54618;52.018;5.576;2024-02-21T13:35:40;11.90;92.20
67820;DHT22;54618;52.018;5.576;2024-02-21T13:38:06;11.80;92.00
67820;DHT22;54618;52.018;5.576;2024-02-21T13:40:31;11.80;91.90
67820;DHT22;54618;52.018;5.576;2024-02-21T13:42:57;11.70;92.10
67820;DHT22;54618;52.018;5.576;2024-02-21T13:45:23;11.70;92.20
67820;DHT22;54618;52.018;5.576;2024-02-21T13:47:49;11.70;92.20
67820;DHT22;54618;52.018;5.576;2024-02-21T13:50:15;11.70;92.20
67820;DHT22;54618;52.018;5.576;2024-02-21T13:52:41;11.70;92.10
67820;DHT22;54618;52.018;5.576;2024-02-21T13:55:07;11.60;92.00
67820;DHT22;54618;52.018;5.576;2024-02-21T13:57:37;11.70;92.20
67820;DHT22;54618;52.018;5.576;2024-02-21T14:00:04;11.70;92.20
67820;DHT22;54618;52.018;5.576;2024-02-21T14:02:36;11.70;92.20
67820;DHT22;54618;52.018;5.576;2024-02-21T14:05:03;11.70;92.00
67820;DHT22;54618;52.018;5.576;2024-02-21T14:07:31;11.70;92.00
67820;DHT22;54618;52.018;5.576;2024-02-21T14:09:58;11.80;92.00
67820;DHT22;54618;52.018;5.576;2024-02-21T14:12:24;11.80;92.00
67820;DHT22;54618;52.018;5.576;2024-02-21T14:14:50;11.80;91.80
67820;DHT22;54618;52.018;5.576;2024-02-21T14:17:16;11.80;91.70
67820;DHT22;54618;52.018;5.576;2024-02-21T14:19:41;11.80;91.50
67820;DHT22;54618;52.018;5.576;2024-02-21T14:22:07;11.70;91.80
67820;DHT22;54618;52.018;5.576;2024-02-21T14:24:32;11.70;91.70
67820;DHT22;54618;52.018;5.576;2024-02-21T14:26:58;11.70;91.50
67820;DHT22;54618;52.018;5.576;2024-02-21T14:29:25;11.70;91.80
67820;DHT22;54618;52.018;5.576;2024-02-21T14:31:50;11.60;91.60
67820;DHT22;54618;52.018;5.576;2024-02-21T14:34:19;11.70;91.70
67820;DHT22;54618;52.018;5.576;2024-02-21T14:36:44;11.70;91.70
67820;DHT22;54618;52.018;5.576;2024-02-21T14:39:10;11.60;91.20
67820;DHT22;54618;52.018;5.576;2024-02-21T14:41:39;11.60;91.10
67820;DHT22;54618;52.018;5.576;2024-02-21T14:44:05;11.50;91.30
67820;DHT22;54618;52.018;5.576;2024-02-21T14:46:31;11.50;90.80
67820;DHT22;54618;52.018;5.576;2024-02-21T14:48:56;11.50;91.30
67820;DHT22;54618;52.018;5.576;2024-02-21T14:51:22;11.50;91.10
67820;DHT22;54618;52.018;5.576;2024-02-21T14:53:47;11.40;91.10
67820;DHT22;54618;52.018;5.576;2024-02-21T14:56:14;11.40;91.10
67820;DHT22;54618;52.018;5.576;2024-02-21T14:58:41;11.40;91.00
67820;DHT22;54618;52.018;5.576;2024-02-21T15:01:09;11.30;91.00
67820;DHT22;54618;52.018;5.576;2024-02-21T15:03:35;11.30;90.80
67820;DHT22;54618;52.018;5.576;2024-02-21T15:06:01;11.20;91.10
67820;DHT22;54618;52.018;5.576;2024-02-21T15:08:27;11.10;91.10
67820;DHT22;54618;52.018;5.576;2024-02-21T15:10:53;11.10;91.20
67820;DHT22;54618;52.018;5.576;2024-02-21T15:13:19;11.10;91.20
67820;DHT22;54618;52.018;5.576;2024-02-21T15:15:45;11.00;91.20
67820;DHT22;54618;52.018;5.576;2024-02-21T15:18:13;10.90;91.30
67820;DHT22;54618;52.018;5.576;2024-02-21T15:20:40;10.90;91.50
67820;DHT22;54618;52.018;5.576;2024-02-21T15:23:06;10.90;91.50
67820;DHT22;54618;52.018;5.576;2024-02-21T15:25:32;10.80;91.50
67820;DHT22;54618;52.018;5.576;2024-02-21T15:27:57;10.70;91.60
67820;DHT22;54618;52.018;5.576;2024-02-21T15:30:24;10.60;91.50
67820;DHT22;54618;52.018;5.576;2024-02-21T15:32:50;10.60;91.80
67820;DHT22;54618;52.018;5.576;2024-02-21T15:35:16;10.50;91.80
67820;DHT22;54618;52.018;5.576;2024-02-21T15:37:41;10.50;91.80
67820;DHT22;54618;52.018;5.576;2024-02-21T15:40:10;10.40;91.90
67820;DHT22;54618;52.018;5.576;2024-02-21T15:42:36;10.40;92.00
67820;DHT22;54618;52.018;5.576;2024-02-21T15:45:02;10.40;92.10